createdAt,value
2019-01-14T00:02:13.933Z,2.13
2019-01-14T00:04:44.076Z,2.90
2019-01-14T00:07:14.108Z,3.50
2019-01-14T00:09:44.190Z,2.80
2019-01-14T00:12:14.237Z,2.67
2019-01-14T00:14:44.285Z,3.33
2019-01-14T00:17:14.346Z,3.13
2019-01-14T00:19:44.409Z,2.87
2019-01-14T00:22:14.500Z,4.07
2019-01-14T00:24:44.539Z,3.60
2019-01-14T00:27:14.586Z,2.93
2019-01-14T00:29:44.634Z,3.30
2019-01-14T00:32:14.666Z,2.83
2019-01-14T00:34:44.732Z,3.63
2019-01-14T00:37:14.761Z,3.10
2019-01-14T00:39:44.809Z,3.47
2019-01-14T00:42:15.259Z,3.37
2019-01-14T00:44:45.301Z,2.93
2019-01-14T00:47:15.347Z,2.90
2019-01-14T00:49:45.426Z,3.57
2019-01-14T00:52:15.458Z,3.07
2019-01-14T00:54:45.516Z,3.87
2019-01-14T00:57:15.562Z,3.73
2019-01-14T00:59:45.664Z,3.17
2019-01-14T01:02:15.706Z,3.37
2019-01-14T01:04:45.737Z,3.50
2019-01-14T01:07:15.795Z,4.13
2019-01-14T01:09:45.827Z,3.37
2019-01-14T01:12:15.865Z,4.10
2019-01-14T01:14:45.935Z,3.87
2019-01-14T01:17:16.065Z,3.53
2019-01-14T01:19:46.076Z,3.10
2019-01-14T01:22:16.119Z,3.80
2019-01-14T01:24:46.170Z,3.10
2019-01-14T01:27:16.231Z,3.70
2019-01-14T01:29:46.256Z,4.33
2019-01-14T01:32:16.339Z,3.33
2019-01-14T01:34:46.416Z,2.97
2019-01-14T01:37:16.471Z,4.40
2019-01-14T01:39:46.533Z,3.40
2019-01-14T01:42:16.594Z,3.87
2019-01-14T01:44:46.660Z,3.73
2019-01-14T01:47:16.711Z,3.60
2019-01-14T01:49:46.809Z,4.00
2019-01-14T01:52:16.862Z,4.33
2019-01-14T01:54:46.889Z,3.47
2019-01-14T01:57:16.912Z,3.93
2019-01-14T01:59:48.506Z,3.93
2019-01-14T02:02:18.550Z,3.60
2019-01-14T02:04:48.613Z,3.90
2019-01-14T02:07:18.661Z,4.47
2019-01-14T02:09:48.719Z,4.23
2019-01-14T02:12:18.741Z,4.37
2019-01-14T02:14:48.788Z,3.80
2019-01-14T02:17:18.893Z,2.97
2019-01-14T02:19:49.017Z,3.73
2019-01-14T02:22:19.079Z,3.67
2019-01-14T02:24:49.118Z,3.40
2019-01-14T02:27:19.183Z,3.93
2019-01-14T02:29:51.334Z,4.43
2019-01-14T02:32:21.402Z,4.83
2019-01-14T02:34:52.245Z,3.83
2019-01-14T02:37:22.292Z,3.97
2019-01-14T02:39:52.350Z,3.50
2019-01-14T02:42:22.371Z,3.73
2019-01-14T02:44:52.450Z,4.63
2019-01-14T02:47:22.484Z,3.43
2019-01-14T02:49:52.533Z,4.60
2019-01-14T02:52:22.578Z,3.93
2019-01-14T02:54:52.611Z,4.77
2019-01-14T02:57:22.666Z,4.13
2019-01-14T02:59:52.698Z,4.10
2019-01-14T03:02:22.720Z,4.57
2019-01-14T03:04:52.812Z,4.40
2019-01-14T03:07:22.842Z,4.43
2019-01-14T03:09:52.913Z,4.67
2019-01-14T03:12:22.953Z,4.53
2019-01-14T03:14:52.990Z,5.00
2019-01-14T03:17:23.035Z,3.60
2019-01-14T03:19:53.067Z,4.33
2019-01-14T03:22:23.114Z,4.53
2019-01-14T03:24:53.168Z,4.03
2019-01-14T03:27:23.264Z,4.03
2019-01-14T03:29:53.316Z,4.87
2019-01-14T03:32:23.387Z,4.77
2019-01-14T03:34:53.416Z,4.00
2019-01-14T03:37:23.458Z,4.27
2019-01-14T03:39:53.532Z,3.80
2019-01-14T03:42:23.585Z,4.67
2019-01-14T03:44:53.627Z,4.00
2019-01-14T03:47:23.697Z,4.47
2019-01-14T03:49:53.733Z,4.27
2019-01-14T03:52:23.769Z,3.90
2019-01-14T03:54:53.827Z,4.13
2019-01-14T03:57:23.893Z,4.57
2019-01-14T03:59:53.925Z,3.97
2019-01-14T04:02:23.981Z,4.07
2019-01-14T04:04:55.056Z,4.10
2019-01-14T04:07:25.120Z,3.83
2019-01-14T04:09:55.186Z,4.63
2019-01-14T04:12:25.221Z,3.03
2019-01-14T04:14:55.259Z,3.07
2019-01-14T04:17:25.310Z,2.90
2019-01-14T04:19:55.454Z,2.60
2019-01-14T04:22:25.564Z,2.70
2019-01-14T04:24:55.602Z,2.73
2019-01-14T04:27:25.642Z,2.87
2019-01-14T04:29:55.670Z,3.67
2019-01-14T04:32:25.757Z,2.90
2019-01-14T04:34:55.796Z,3.47
2019-01-14T04:37:25.863Z,3.10
2019-01-14T04:39:55.921Z,3.47
2019-01-14T04:42:25.969Z,4.20
2019-01-14T04:44:56.067Z,3.67
2019-01-14T04:47:26.140Z,3.50
2019-01-14T04:49:56.164Z,3.47
2019-01-14T04:52:26.206Z,2.90
2019-01-14T04:54:56.271Z,3.40
2019-01-14T04:57:26.309Z,3.50
2019-01-14T04:59:56.405Z,3.03
2019-01-14T05:02:26.722Z,3.13
2019-01-14T05:04:56.761Z,3.63
2019-01-14T05:07:29.739Z,3.77
2019-01-14T05:09:58.613Z,3.40
2019-01-14T05:12:28.682Z,2.87
2019-01-14T05:14:58.789Z,3.63
2019-01-14T05:17:28.870Z,3.57
2019-01-14T05:19:58.917Z,3.60
2019-01-14T05:22:28.951Z,3.53
2019-01-14T05:24:58.994Z,3.50
2019-01-14T05:27:29.003Z,3.83
2019-01-14T05:29:59.047Z,3.90
2019-01-14T05:32:29.069Z,2.77
2019-01-14T05:34:59.087Z,2.97
2019-01-14T05:37:29.180Z,3.13
2019-01-14T05:39:59.444Z,2.63
2019-01-14T05:42:31.077Z,3.07
2019-01-14T05:45:01.205Z,2.53
2019-01-14T05:47:31.278Z,2.63
2019-01-14T05:50:01.990Z,2.27
2019-01-14T05:52:32.066Z,2.73
2019-01-14T05:55:02.132Z,2.50
2019-01-14T05:57:32.183Z,2.17
2019-01-14T06:00:02.852Z,2.43
2019-01-14T06:02:32.861Z,2.00
2019-01-14T06:05:02.943Z,2.33
2019-01-14T06:07:33.006Z,2.70
2019-01-14T06:10:03.130Z,1.80
2019-01-14T06:12:33.204Z,2.80
2019-01-14T06:15:03.908Z,2.10
2019-01-14T06:17:33.953Z,3.43
2019-01-14T06:20:05.522Z,2.40
2019-01-14T06:22:36.680Z,2.70
2019-01-14T06:25:07.892Z,2.70
2019-01-14T06:27:39.610Z,3.77
2019-01-14T06:30:18.762Z,2.13
2019-01-14T06:32:48.855Z,2.80
2019-01-14T06:35:19.087Z,2.20
2019-01-14T06:37:52.637Z,2.70
2019-01-14T06:40:21.491Z,2.43
2019-01-14T06:42:51.556Z,2.80
2019-01-14T06:45:21.636Z,2.90
2019-01-14T06:47:51.717Z,3.23
2019-01-14T06:50:21.882Z,2.53
2019-01-14T06:52:51.929Z,2.40
2019-01-14T06:55:21.973Z,2.93
2019-01-14T06:57:52.053Z,2.50
2019-01-14T07:00:24.954Z,2.77
2019-01-14T07:02:55.153Z,3.97
2019-01-14T07:05:25.492Z,3.10
2019-01-14T07:07:59.532Z,2.83
2019-01-14T07:10:31.254Z,3.50
2019-01-14T07:13:01.316Z,5.50
2019-01-14T07:15:31.446Z,5.90
2019-01-14T07:18:01.641Z,9.37
2019-01-14T07:20:31.694Z,4.40
2019-01-14T07:23:01.764Z,9.20
2019-01-14T07:25:31.864Z,12.27
2019-01-14T07:28:01.927Z,8.97
2019-01-14T07:30:33.533Z,6.87
2019-01-14T07:33:06.823Z,7.70
2019-01-14T07:35:36.867Z,6.87
2019-01-14T07:38:07.239Z,12.23
2019-01-14T07:40:37.372Z,11.87
2019-01-14T07:43:07.409Z,7.43
2019-01-14T07:45:37.669Z,8.03
2019-01-14T07:48:08.569Z,7.07
2019-01-14T07:50:38.605Z,5.80
2019-01-14T07:53:08.737Z,3.53
2019-01-14T07:55:38.822Z,4.33
2019-01-14T07:58:08.865Z,3.60
2019-01-14T08:00:39.945Z,3.90
2019-01-14T08:03:12.077Z,4.43
2019-01-14T08:05:42.592Z,2.77
2019-01-14T08:08:14.222Z,2.30
2019-01-14T08:10:44.461Z,2.13
2019-01-14T08:13:14.602Z,3.63
2019-01-14T08:15:44.642Z,2.67
2019-01-14T08:18:14.809Z,2.80
2019-01-14T08:20:45.797Z,2.73
2019-01-14T08:23:15.984Z,3.60
2019-01-14T08:25:46.069Z,3.60
2019-01-14T08:28:16.287Z,3.27
2019-01-14T08:30:46.338Z,4.20
2019-01-14T08:33:16.478Z,2.63
2019-01-14T08:35:46.524Z,2.17
2019-01-14T08:38:21.169Z,3.40
2019-01-14T08:40:48.434Z,3.37
2019-01-14T08:43:18.483Z,3.13
2019-01-14T08:45:49.239Z,3.13
2019-01-14T08:48:19.285Z,3.00
2019-01-14T08:50:49.349Z,2.93
2019-01-14T08:53:19.382Z,2.67
2019-01-14T08:55:49.399Z,2.60
2019-01-14T08:58:19.448Z,2.47
2019-01-14T09:00:49.479Z,2.67
2019-01-14T09:03:19.528Z,2.83
2019-01-14T09:05:49.573Z,3.07
2019-01-14T09:08:19.623Z,2.40
2019-01-14T09:10:49.750Z,2.40
2019-01-14T09:13:19.780Z,2.10
2019-01-14T09:15:49.846Z,2.63
2019-01-14T09:18:19.877Z,2.27
2019-01-14T09:20:50.110Z,2.03
2019-01-14T09:23:20.207Z,2.20
2019-01-14T09:25:53.862Z,2.70
2019-01-14T09:28:22.661Z,2.70
2019-01-14T09:30:52.754Z,2.57
2019-01-14T09:33:23.615Z,2.87
2019-01-14T09:35:55.689Z,2.23
2019-01-14T09:38:26.373Z,2.80
2019-01-14T09:40:56.394Z,2.27
2019-01-14T09:43:27.362Z,2.37
2019-01-14T09:45:57.430Z,2.73
2019-01-14T09:48:28.153Z,2.43
2019-01-14T09:50:58.223Z,2.80
2019-01-14T09:53:28.569Z,2.13
2019-01-14T09:55:59.434Z,2.20
2019-01-14T09:58:29.497Z,2.63
2019-01-14T10:00:59.877Z,2.30
2019-01-14T10:03:29.898Z,2.50
2019-01-14T10:05:59.989Z,2.70
2019-01-14T10:08:30.035Z,2.43
2019-01-14T10:11:00.102Z,2.20
2019-01-14T10:13:30.176Z,2.57
2019-01-14T10:16:00.226Z,2.53
2019-01-14T10:18:30.617Z,2.27
2019-01-14T10:21:00.656Z,2.90
2019-01-14T10:23:30.770Z,2.93
2019-01-14T10:26:02.081Z,2.33
2019-01-14T10:28:32.169Z,2.37
2019-01-14T10:31:02.201Z,2.50
2019-01-14T10:33:32.242Z,2.13
2019-01-14T10:36:02.447Z,3.10
2019-01-14T10:38:32.530Z,3.00
2019-01-14T10:41:02.629Z,2.33
2019-01-14T10:43:32.678Z,2.50
2019-01-14T10:46:02.729Z,2.17
2019-01-14T10:48:32.758Z,2.07
2019-01-14T10:51:02.934Z,2.73
2019-01-14T10:53:32.950Z,2.20
2019-01-14T10:56:03.007Z,1.90
2019-01-14T10:58:33.046Z,2.97
2019-01-14T11:01:03.162Z,2.50
2019-01-14T11:03:33.219Z,3.00
2019-01-14T11:06:03.702Z,3.00
2019-01-14T11:08:33.758Z,2.70
2019-01-14T11:11:03.798Z,1.93
2019-01-14T11:13:33.831Z,2.07
2019-01-14T11:16:03.859Z,2.60
2019-01-14T11:18:33.893Z,1.63
2019-01-14T11:21:04.370Z,2.20
2019-01-14T11:23:34.407Z,2.50
2019-01-14T11:26:10.542Z,2.30
2019-01-14T11:28:40.669Z,2.10
2019-01-14T11:31:10.760Z,2.13
2019-01-14T11:33:42.697Z,1.97
2019-01-14T11:36:12.722Z,1.70
2019-01-14T11:38:48.207Z,1.57
2019-01-14T11:41:18.698Z,1.77
2019-01-14T11:43:48.721Z,1.93
2019-01-14T11:46:18.803Z,1.83
2019-01-14T11:48:48.843Z,1.87
2019-01-14T11:51:18.932Z,2.47
2019-01-14T11:53:48.990Z,1.97
2019-01-14T11:56:19.015Z,1.80
2019-01-14T11:58:49.087Z,2.00
2019-01-14T12:01:19.095Z,2.43
2019-01-14T12:03:49.155Z,1.90
2019-01-14T12:06:19.195Z,1.80
2019-01-14T12:08:49.273Z,2.10
2019-01-14T12:11:19.842Z,1.80
2019-01-14T12:13:49.876Z,1.53
2019-01-14T12:16:19.887Z,2.20
2019-01-14T12:18:49.969Z,1.93
2019-01-14T12:21:20.483Z,1.87
2019-01-14T12:23:50.563Z,1.93
2019-01-14T12:26:20.614Z,1.30
2019-01-14T12:28:50.674Z,1.70
2019-01-14T12:31:20.742Z,1.80
2019-01-14T12:33:50.796Z,1.83
2019-01-14T12:36:21.439Z,1.87
2019-01-14T12:38:51.478Z,1.80
2019-01-14T12:41:21.499Z,1.90
2019-01-14T12:43:51.609Z,1.33
2019-01-14T12:46:21.636Z,1.70
2019-01-14T12:48:51.852Z,1.47
2019-01-14T12:51:21.935Z,1.50
2019-01-14T12:53:51.973Z,1.80
2019-01-14T12:56:22.198Z,1.53
2019-01-14T12:58:52.284Z,1.43
2019-01-14T13:01:22.355Z,1.70
2019-01-14T13:03:52.677Z,2.00
2019-01-14T13:06:22.751Z,1.57
2019-01-14T13:08:52.824Z,1.50
2019-01-14T13:11:23.385Z,1.83
2019-01-14T13:13:53.497Z,1.67
2019-01-14T13:16:23.564Z,1.33
2019-01-14T13:18:53.632Z,1.70
2019-01-14T13:21:23.715Z,1.77
2019-01-14T13:23:53.791Z,2.97
2019-01-14T13:26:23.840Z,1.40
2019-01-14T13:28:53.917Z,1.57
2019-01-14T13:31:23.957Z,1.40
2019-01-14T13:33:57.998Z,1.93
2019-01-14T13:36:28.057Z,1.63
2019-01-14T13:38:58.113Z,1.97
2019-01-14T13:41:28.226Z,1.40
2019-01-14T13:43:58.255Z,1.90
2019-01-14T13:46:28.339Z,1.90
2019-01-14T13:48:58.368Z,1.50
2019-01-14T13:51:28.437Z,1.43
2019-01-14T13:53:58.489Z,1.83
2019-01-14T13:56:28.534Z,1.50
2019-01-14T13:58:58.595Z,1.00
2019-01-14T14:01:28.676Z,1.13
2019-01-14T14:03:58.754Z,1.03
2019-01-14T14:06:28.846Z,1.80
2019-01-14T14:09:07.751Z,1.20
2019-01-14T14:11:38.913Z,1.10
2019-01-14T14:14:08.953Z,1.10
2019-01-14T14:16:39.473Z,1.33
2019-01-14T14:19:09.560Z,1.20
2019-01-14T14:21:40.623Z,1.30
2019-01-14T14:24:10.649Z,1.27
2019-01-14T14:26:41.157Z,1.60
2019-01-14T14:29:12.265Z,1.53
2019-01-14T14:31:46.811Z,1.40
2019-01-14T14:34:16.858Z,1.30
2019-01-14T14:36:46.964Z,1.63
2019-01-14T14:39:17.015Z,1.73
2019-01-14T14:41:47.105Z,1.30
2019-01-14T14:44:17.171Z,1.40
2019-01-14T14:46:47.375Z,1.83
2019-01-14T14:49:17.579Z,1.50
2019-01-14T14:51:50.186Z,1.50
2019-01-14T14:54:20.226Z,1.83
2019-01-14T14:56:50.363Z,1.40
2019-01-14T14:59:20.411Z,1.50
2019-01-14T15:01:50.446Z,1.20
2019-01-14T15:04:20.488Z,1.50
2019-01-14T15:06:50.511Z,1.60
2019-01-14T15:09:20.583Z,1.80
2019-01-14T15:11:50.647Z,1.70
2019-01-14T15:14:20.737Z,2.00
2019-01-14T15:16:50.781Z,2.30
2019-01-14T15:19:20.855Z,2.00
2019-01-14T15:21:50.897Z,2.60
2019-01-14T15:24:21.063Z,1.97
2019-01-14T15:26:51.096Z,1.90
2019-01-14T15:29:21.146Z,1.50
2019-01-14T15:31:51.639Z,1.80
2019-01-14T15:34:21.773Z,1.70
2019-01-14T15:36:53.329Z,2.27
2019-01-14T15:39:25.373Z,2.77
2019-01-14T15:41:59.217Z,1.57
2019-01-14T15:44:30.469Z,1.83
2019-01-14T15:47:02.953Z,1.83
2019-01-14T15:49:33.727Z,1.87
2019-01-14T15:52:03.805Z,1.60
2019-01-14T15:54:36.873Z,1.93
2019-01-14T15:57:07.236Z,1.87
2019-01-14T15:59:37.288Z,1.83
2019-01-14T16:02:07.312Z,1.83
2019-01-14T16:04:37.396Z,1.93
2019-01-14T16:07:07.495Z,1.93
2019-01-14T16:09:37.825Z,2.67
2019-01-14T16:12:08.132Z,1.80
2019-01-14T16:14:38.273Z,1.80
2019-01-14T16:17:08.395Z,1.93
2019-01-14T16:19:38.593Z,1.93
2019-01-14T16:22:08.723Z,1.90
2019-01-14T16:24:40.358Z,1.93
2019-01-14T16:27:10.874Z,1.93
2019-01-14T16:29:41.498Z,2.40
2019-01-14T16:32:11.534Z,1.60
2019-01-14T16:34:41.588Z,2.00
2019-01-14T16:37:11.665Z,2.27
2019-01-14T16:39:42.747Z,1.90
2019-01-14T16:42:12.845Z,2.43
2019-01-14T16:44:43.012Z,1.90
2019-01-14T16:47:13.048Z,1.60
2019-01-14T16:49:43.775Z,2.00
2019-01-14T16:52:13.834Z,1.90
2019-01-14T16:54:44.135Z,2.33
2019-01-14T16:57:14.229Z,1.90
2019-01-14T16:59:44.821Z,1.87
2019-01-14T17:02:14.944Z,2.00
2019-01-14T17:04:45.452Z,2.10
2019-01-14T17:07:15.496Z,2.27
2019-01-14T17:09:45.553Z,2.33
2019-01-14T17:12:15.711Z,2.47
2019-01-14T17:14:45.746Z,2.70
2019-01-14T17:17:15.878Z,2.57
2019-01-14T17:19:45.922Z,1.70
2019-01-14T17:22:15.986Z,1.90
2019-01-14T17:24:46.073Z,2.00
2019-01-14T17:27:17.172Z,1.57
2019-01-14T17:29:48.121Z,1.83
2019-01-14T17:32:18.228Z,1.50
2019-01-14T17:34:48.281Z,2.37
2019-01-14T17:37:19.355Z,1.70
2019-01-14T17:39:56.823Z,2.30
2019-01-14T17:42:27.023Z,2.17
2019-01-14T17:44:57.852Z,2.00
2019-01-14T17:47:27.905Z,1.67
2019-01-14T17:49:58.051Z,2.00
2019-01-14T17:52:28.195Z,2.23
2019-01-14T17:54:58.281Z,2.23
2019-01-14T17:57:28.339Z,2.13
2019-01-14T17:59:58.556Z,2.20
2019-01-14T18:02:28.986Z,2.57
2019-01-14T18:05:01.198Z,1.90
2019-01-14T18:07:31.244Z,2.20
2019-01-14T18:10:01.340Z,1.90
2019-01-14T18:12:32.114Z,2.20
2019-01-14T18:15:02.176Z,2.50
2019-01-14T18:17:33.325Z,2.87
2019-01-14T18:20:05.259Z,2.07
2019-01-14T18:22:35.284Z,1.70
2019-01-14T18:25:07.310Z,2.07
2019-01-14T18:27:37.553Z,2.30
2019-01-14T18:30:11.617Z,1.80
2019-01-14T18:32:42.147Z,2.13
2019-01-14T18:35:14.382Z,1.87
2019-01-14T18:37:55.350Z,2.40
2019-01-14T18:40:33.622Z,2.00
2019-01-14T18:42:59.261Z,2.77
2019-01-14T18:45:29.312Z,2.23
2019-01-14T18:47:59.819Z,2.27
2019-01-14T18:50:29.983Z,2.63
2019-01-14T18:53:00.599Z,2.30
2019-01-14T18:55:30.627Z,2.03
2019-01-14T18:58:00.733Z,2.70
2019-01-14T19:00:30.812Z,2.43
2019-01-14T19:03:01.210Z,3.53
2019-01-14T19:05:31.261Z,3.67
2019-01-14T19:08:01.300Z,4.27
2019-01-14T19:10:31.422Z,4.50
2019-01-14T19:13:01.735Z,5.30
2019-01-14T19:15:31.766Z,4.17
2019-01-14T19:18:01.879Z,5.63
2019-01-14T19:20:31.981Z,4.67
2019-01-14T19:23:02.091Z,5.03
2019-01-14T19:25:33.088Z,4.43
2019-01-14T19:28:03.324Z,6.40
2019-01-14T19:30:33.325Z,5.07
2019-01-14T19:33:03.420Z,4.00
2019-01-14T19:35:33.427Z,3.47
2019-01-14T19:38:03.766Z,6.60
2019-01-14T19:40:35.358Z,3.63
2019-01-14T19:43:05.516Z,3.57
2019-01-14T19:45:35.560Z,4.60
2019-01-14T19:48:06.343Z,3.73
2019-01-14T19:50:36.365Z,3.40
2019-01-14T19:53:06.579Z,3.63
2019-01-14T19:55:36.716Z,4.13
2019-01-14T19:58:06.840Z,4.50
2019-01-14T20:00:36.857Z,3.13
2019-01-14T20:03:07.237Z,2.80
2019-01-14T20:05:37.300Z,2.90
2019-01-14T20:08:07.403Z,2.73
2019-01-14T20:10:37.474Z,2.60
2019-01-14T20:13:07.559Z,3.27
2019-01-14T20:15:38.190Z,2.90
2019-01-14T20:18:08.416Z,3.60
2019-01-14T20:20:38.474Z,2.87
2019-01-14T20:23:08.747Z,3.00
2019-01-14T20:25:38.899Z,2.63
2019-01-14T20:28:09.018Z,3.57
2019-01-14T20:30:39.862Z,2.63
2019-01-14T20:33:10.087Z,2.50
2019-01-14T20:35:40.198Z,2.93
2019-01-14T20:38:10.219Z,3.17
2019-01-14T20:40:42.081Z,3.43
2019-01-14T20:43:12.160Z,2.43
2019-01-14T20:45:44.332Z,3.60
2019-01-14T20:48:14.568Z,2.37
2019-01-14T20:50:44.887Z,2.90
2019-01-14T20:53:17.889Z,2.97
2019-01-14T20:55:48.254Z,3.27
2019-01-14T20:58:18.387Z,3.10
2019-01-14T21:00:48.567Z,3.17
2019-01-14T21:03:18.673Z,3.40
2019-01-14T21:05:48.925Z,2.70
2019-01-14T21:08:19.384Z,3.13
2019-01-14T21:10:49.495Z,2.57
2019-01-14T21:13:19.768Z,2.97
2019-01-14T21:15:49.893Z,3.20
2019-01-14T21:18:20.007Z,3.00
2019-01-14T21:20:50.150Z,3.73
2019-01-14T21:23:20.350Z,4.00
2019-01-14T21:25:50.648Z,3.87
2019-01-14T21:28:20.723Z,3.90
2019-01-14T21:30:50.927Z,4.50
2019-01-14T21:33:21.084Z,3.53
2019-01-14T21:35:51.202Z,4.07
2019-01-14T21:38:21.319Z,3.47
2019-01-14T21:40:51.415Z,2.73
2019-01-14T21:43:21.725Z,3.20
2019-01-14T21:45:51.856Z,3.47
2019-01-14T21:48:21.981Z,3.53
2019-01-14T21:50:52.363Z,3.90
2019-01-14T21:53:22.488Z,3.50
2019-01-14T21:55:52.757Z,4.20
2019-01-14T21:58:23.306Z,4.37
2019-01-14T22:00:53.657Z,2.90
2019-01-14T22:03:23.742Z,2.77
2019-01-14T22:05:53.984Z,3.00
2019-01-14T22:08:24.253Z,3.87
2019-01-14T22:10:54.467Z,3.60
2019-01-14T22:13:24.675Z,3.43
2019-01-14T22:15:54.927Z,3.53
2019-01-14T22:18:25.126Z,3.70
2019-01-14T22:20:55.244Z,3.33
2019-01-14T22:23:25.371Z,3.37
2019-01-14T22:25:55.713Z,2.90
2019-01-14T22:28:26.040Z,3.07
2019-01-14T22:30:56.195Z,2.70
2019-01-14T22:33:26.770Z,3.20
2019-01-14T22:35:56.938Z,3.97
2019-01-14T22:38:27.086Z,3.40
2019-01-14T22:40:57.154Z,3.97
2019-01-14T22:43:27.217Z,2.63
2019-01-14T22:45:57.265Z,3.07
2019-01-14T22:48:27.358Z,3.10
2019-01-14T22:50:57.396Z,3.97
2019-01-14T22:53:27.543Z,3.20
2019-01-14T22:55:57.570Z,3.33
2019-01-14T22:58:27.600Z,4.40
2019-01-14T23:01:38.142Z,3.67
2019-01-14T23:04:08.206Z,3.43
2019-01-14T23:06:39.024Z,3.60
2019-01-14T23:09:10.945Z,3.53
2019-01-14T23:11:40.941Z,3.23
2019-01-14T23:14:11.491Z,3.03
2019-01-14T23:16:41.553Z,3.60
2019-01-14T23:19:11.960Z,2.80
2019-01-14T23:21:42.310Z,2.63
2019-01-14T23:24:12.807Z,3.33
2019-01-14T23:26:42.865Z,2.87
2019-01-14T23:29:13.539Z,3.10
2019-01-14T23:31:43.588Z,3.10
2019-01-14T23:34:14.409Z,2.53
2019-01-14T23:36:45.330Z,2.53
2019-01-14T23:39:15.334Z,3.57
2019-01-14T23:41:45.443Z,2.90
2019-01-14T23:44:15.593Z,3.90
2019-01-14T23:46:45.594Z,3.30
2019-01-14T23:49:15.688Z,3.17
2019-01-14T23:51:45.777Z,2.90
2019-01-14T23:54:15.861Z,3.40
2019-01-14T23:56:46.418Z,3.83
2019-01-14T23:59:16.773Z,2.57
